Time;durP1;ratioP1;P1;durP2;ratioP2;P2;SDS_P1;SDS_P2;PMS_P1;PMS_P2;Temp;Humidity;BMP_temperature;BMP_pressure;BME280_temperature;BME280_humidity;BME280_pressure;Samples;Min_cycle;Max_cycle;Signal;HPM_P1;HPM_P2
2022/10/18 04:03:53;;;;;;;4.47;3.10;;;14.90;99.90;;;;;;5822305;23;20474;-71
2022/10/18 04:06:18;;;;;;;5.00;3.47;;;14.80;99.90;;;;;;4936603;29;20417;-71
2022/10/18 04:08:44;;;;;;;3.87;2.80;;;14.80;99.90;;;;;;4938038;29;20189;-71
2022/10/18 04:11:10;;;;;;;6.47;2.80;;;14.80;99.90;;;;;;4938630;29;20181;-69
2022/10/18 04:13:36;;;;;;;3.00;2.77;;;14.80;99.90;;;;;;4937777;29;20244;-69
2022/10/18 04:16:02;;;;;;;3.50;3.20;;;14.90;99.90;;;;;;4938402;29;20372;-70
2022/10/18 04:18:28;;;;;;;3.10;2.60;;;14.90;99.90;;;;;;4949658;29;20622;-70
2022/10/18 04:20:53;;;;;;;4.33;3.07;;;14.90;99.90;;;;;;4957061;29;20188;-70
2022/10/18 04:23:19;;;;;;;2.97;2.77;;;15.00;99.90;;;;;;4956742;29;20456;-71
2022/10/18 04:25:44;;;;;;;4.07;2.93;;;15.00;99.90;;;;;;4939946;29;20559;-71
2022/10/18 04:28:10;;;;;;;3.37;3.07;;;15.10;99.90;;;;;;4955183;29;20180;-70
2022/10/18 04:30:35;;;;;;;2.73;2.47;;;15.10;99.90;;;;;;4956654;28;20191;-70
2022/10/18 04:33:01;;;;;;;3.33;2.83;;;15.10;99.90;;;;;;4955655;29;20173;-71
2022/10/18 04:35:27;;;;;;;3.63;2.90;;;15.10;99.90;;;;;;4956388;29;20583;-70
2022/10/18 04:37:53;;;;;;;6.20;3.30;;;15.10;99.90;;;;;;4939654;29;20187;-70
2022/10/18 04:40:19;;;;;;;4.17;3.77;;;15.10;99.90;;;;;;4956928;29;20413;-70
2022/10/18 04:42:45;;;;;;;3.00;2.80;;;15.10;99.90;;;;;;4942131;29;20408;-71
2022/10/18 04:45:11;;;;;;;2.90;2.70;;;15.10;99.90;;;;;;4937280;29;20455;-71
2022/10/18 04:47:36;;;;;;;4.13;2.60;;;15.10;99.90;;;;;;4937856;29;20401;-71
2022/10/18 04:50:03;;;;;;;3.87;3.30;;;15.20;99.90;;;;;;4920335;29;20173;-71
2022/10/18 04:52:29;;;;;;;3.70;3.40;;;15.20;99.90;;;;;;4939553;29;20485;-71
2022/10/18 04:54:55;;;;;;;4.93;3.13;;;15.20;99.90;;;;;;4956317;29;20444;-71
2022/10/18 04:57:20;;;;;;;3.17;2.77;;;15.20;99.90;;;;;;4956786;29;20184;-71
2022/10/18 04:59:46;;;;;;;6.17;3.10;;;15.20;99.90;;;;;;4939464;29;20655;-72
2022/10/18 05:02:12;;;;;;;5.30;2.80;;;15.20;99.90;;;;;;4938630;29;20221;-70
2022/10/18 05:04:38;;;;;;;3.83;3.20;;;15.20;99.90;;;;;;4936633;29;20453;-70
2022/10/18 05:07:05;;;;;;;8.37;3.20;;;15.20;99.90;;;;;;4937603;29;20640;-71
2022/10/18 05:09:31;;;;;;;3.80;3.50;;;15.20;99.90;;;;;;4937362;29;20262;-71
2022/10/18 05:11:57;;;;;;;4.63;4.10;;;15.10;99.90;;;;;;4936728;29;20413;-71
2022/10/18 05:14:22;;;;;;;7.10;3.67;;;15.10;99.90;;;;;;4936625;29;20442;-71
2022/10/18 05:16:48;;;;;;;6.93;3.50;;;15.10;99.90;;;;;;4936802;29;20197;-72
2022/10/18 05:19:13;;;;;;;5.33;3.47;;;15.10;99.90;;;;;;4937037;29;20292;-74
2022/10/18 05:21:39;;;;;;;3.63;3.03;;;15.10;99.90;;;;;;4936970;29;20174;-71
2022/10/18 05:24:05;;;;;;;4.80;3.70;;;15.10;99.90;;;;;;4954057;29;20674;-67
2022/10/18 05:26:30;;;;;;;3.37;3.07;;;15.10;99.90;;;;;;4936847;29;20727;-67
2022/10/18 05:28:56;;;;;;;4.43;3.43;;;15.10;99.90;;;;;;4936900;29;20546;-69
2022/10/18 05:31:22;;;;;;;5.27;4.77;;;15.10;99.90;;;;;;4918954;29;20229;-69
2022/10/18 05:33:47;;;;;;;4.73;4.33;;;15.10;99.90;;;;;;4922951;29;20603;-69
2022/10/18 05:36:13;;;;;;;7.27;3.83;;;15.10;99.90;;;;;;4918955;29;20261;-69
2022/10/18 05:38:44;;;;;;;5.90;4.00;;;15.20;99.90;;;;;;4904453;29;20198;-68
2022/10/18 05:41:10;;;;;;;4.20;3.80;;;15.20;99.90;;;;;;4933723;29;20178;-70
2022/10/18 05:43:36;;;;;;;4.33;3.90;;;15.20;99.90;;;;;;4917162;29;20447;-67
2022/10/18 05:46:03;;;;;;;8.33;5.00;;;15.20;99.90;;;;;;4925424;29;20380;-72
2022/10/18 05:48:28;;;;;;;6.30;5.35;;;15.20;99.90;;;;;;4917437;29;20849;-70
2022/10/18 05:50:58;;;;;;;5.50;4.50;;;15.20;99.90;;;;;;4927192;29;20472;-70
2022/10/18 05:53:23;;;;;;;6.13;4.20;;;15.30;99.90;;;;;;4934249;29;20186;-68
2022/10/18 05:55:49;;;;;;;6.63;3.50;;;15.30;99.90;;;;;;4924790;29;20870;-69
2022/10/18 05:58:14;;;;;;;3.00;2.80;;;15.30;99.90;;;;;;4935974;29;20205;-69
2022/10/18 06:00:40;;;;;;;4.83;4.10;;;15.40;99.90;;;;;;4933317;29;20258;-70
2022/10/18 06:03:06;;;;;;;4.57;3.77;;;15.40;99.90;;;;;;4916904;29;20177;-69
2022/10/18 06:05:31;;;;;;;5.87;5.17;;;15.50;99.90;;;;;;4917620;29;20549;-68
2022/10/18 06:07:57;;;;;;;6.50;5.47;;;15.40;99.90;;;;;;4922884;29;20187;-67
2022/10/18 06:10:23;;;;;;;9.00;4.97;;;15.40;99.90;;;;;;4930792;29;20182;-68
2022/10/18 06:12:49;;;;;;;4.43;4.03;;;15.40;99.90;;;;;;4935268;29;20196;-67
2022/10/18 06:15:15;;;;;;;6.87;3.90;;;15.40;99.90;;;;;;4931396;29;20960;-67
2022/10/18 06:17:40;;;;;;;4.63;3.50;;;15.30;99.90;;;;;;4928519;29;20434;-68
2022/10/18 06:20:07;;;;;;;5.67;3.80;;;15.30;99.90;;;;;;4918288;29;20213;-67
2022/10/18 06:22:33;;;;;;;3.80;3.50;;;15.30;99.90;;;;;;4934885;29;20177;-67
2022/10/18 06:24:58;;;;;;;4.10;3.70;;;15.30;99.90;;;;;;4935697;29;20935;-68
2022/10/18 06:27:24;;;;;;;3.50;3.20;;;15.40;99.90;;;;;;4935389;29;20190;-67
2022/10/18 06:29:50;;;;;;;3.90;3.50;;;15.50;99.90;;;;;;4934262;29;20186;-67
2022/10/18 06:32:16;;;;;;;4.47;3.60;;;15.50;99.90;;;;;;4918755;29;20548;-67
2022/10/18 06:34:42;;;;;;;4.07;3.70;;;15.60;99.90;;;;;;4935474;29;20437;-67
2022/10/18 06:37:08;;;;;;;5.63;4.60;;;15.70;99.90;;;;;;4935842;29;20526;-67
2022/10/18 06:39:33;;;;;;;4.70;4.30;;;15.80;99.90;;;;;;4935738;29;20203;-67
2022/10/18 06:41:59;;;;;;;4.00;3.67;;;16.00;99.90;;;;;;4918613;29;20430;-67
2022/10/18 06:44:25;;;;;;;4.10;3.70;;;16.30;99.90;;;;;;4935361;29;20199;-67
2022/10/18 06:46:52;;;;;;;5.10;3.83;;;16.50;99.90;;;;;;4918371;29;20279;-67
2022/10/18 06:49:18;;;;;;;4.40;4.00;;;16.70;99.90;;;;;;4935762;29;20216;-67
2022/10/18 06:51:44;;;;;;;4.03;3.60;;;17.00;99.90;;;;;;4918357;29;20399;-67
2022/10/18 06:54:10;;;;;;;5.13;3.70;;;17.30;99.90;;;;;;4935653;29;20439;-69
2022/10/18 06:56:36;;;;;;;4.63;3.90;;;17.50;99.90;;;;;;4939335;29;20896;-67
2022/10/18 06:59:02;;;;;;;4.90;3.23;;;17.60;99.90;;;;;;4939476;29;20461;-68
2022/10/18 07:01:27;;;;;;;3.93;3.63;;;17.60;99.90;;;;;;4939438;29;20844;-68
2022/10/18 07:03:54;;;;;;;3.90;3.60;;;17.70;99.90;;;;;;4938929;29;20197;-68
2022/10/18 07:06:20;;;;;;;3.23;2.63;;;17.70;99.90;;;;;;4939339;29;20209;-67
2022/10/18 07:08:47;;;;;;;3.57;3.27;;;17.70;99.90;;;;;;4944699;29;21000;-70
2022/10/18 07:11:16;;;;;;;5.77;3.80;;;17.80;99.90;;;;;;4956406;29;20768;-70
2022/10/18 07:13:41;;;;;;;3.73;3.43;;;17.80;99.90;;;;;;4938746;29;20414;-67
2022/10/18 07:16:16;;;;;;;4.20;3.90;;;17.80;99.90;;;;;;4938646;29;20879;-68
2022/10/18 07:18:44;;;;;;;4.20;3.27;;;17.80;99.90;;;;;;4928102;29;20212;-68
2022/10/18 07:21:12;;;;;;;3.17;2.87;;;17.80;99.90;;;;;;4903015;29;20804;-69
2022/10/18 07:23:40;;;;;;;6.23;3.40;;;17.80;99.90;;;;;;4928528;29;20720;-67
2022/10/18 07:26:18;;;;;;;2.77;2.57;;;17.90;99.90;;;;;;4921411;29;20516;-67
2022/10/18 07:28:46;;;;;;;3.20;2.80;;;17.90;99.90;;;;;;4935613;29;20419;-69
2022/10/18 07:31:12;;;;;;;6.13;3.47;;;18.00;99.90;;;;;;4937562;29;20418;-67
2022/10/18 07:37:01;;;;;;;3.97;3.60;;;18.10;99.90;;;;;;4929748;29;20178;-67
2022/10/18 07:39:26;;;;;;;4.43;3.83;;;18.20;99.90;;;;;;4935951;29;20461;-66
2022/10/18 07:41:53;;;;;;;7.73;5.00;;;18.20;99.90;;;;;;4920747;29;20479;-66
2022/10/18 07:44:18;;;;;;;5.50;4.20;;;18.30;99.90;;;;;;4934730;29;20249;-67
2022/10/18 07:46:44;;;;;;;5.70;5.00;;;18.30;99.90;;;;;;4937300;29;20904;-69
2022/10/18 07:49:09;;;;;;;5.47;4.97;;;18.40;99.90;;;;;;4937067;29;20178;-67
2022/10/18 07:51:35;;;;;;;6.90;4.93;;;18.50;99.90;;;;;;4936863;29;20178;-70
2022/10/18 07:54:01;;;;;;;6.07;5.37;;;18.60;99.90;;;;;;4936357;29;20221;-67
2022/10/18 07:56:27;;;;;;;9.63;5.43;;;18.80;99.90;;;;;;4936433;29;20189;-66
2022/10/18 07:58:54;;;;;;;8.00;4.27;;;18.90;99.90;;;;;;4937052;29;20564;-68
2022/10/18 08:01:23;;;;;;;5.03;4.40;;;19.00;99.90;;;;;;4919750;29;20413;-66
2022/10/18 08:03:50;;;;;;;5.60;4.00;;;19.20;99.90;;;;;;4928455;29;20804;-67
2022/10/18 08:06:17;;;;;;;6.80;3.27;;;19.40;99.90;;;;;;4903845;29;20411;-67
2022/10/18 08:08:43;;;;;;;4.53;3.23;;;19.60;99.90;;;;;;4919900;29;20421;-67
2022/10/18 08:11:13;;;;;;;5.40;3.53;;;19.90;99.90;;;;;;4937300;29;20424;-67
2022/10/18 08:13:39;;;;;;;4.70;2.30;;;20.10;99.90;;;;;;4936406;29;20464;-67
2022/10/18 08:16:08;;;;;;;3.80;2.53;;;20.20;99.90;;;;;;4936106;29;20392;-67
2022/10/18 08:18:34;;;;;;;3.90;2.70;;;20.40;99.90;;;;;;4936861;29;20284;-67
2022/10/18 08:21:01;;;;;;;4.77;2.27;;;20.50;99.90;;;;;;4931637;29;20456;-68
2022/10/18 08:23:27;;;;;;;3.50;3.20;;;20.70;99.90;;;;;;4919325;29;20452;-67
2022/10/18 08:25:53;;;;;;;3.00;2.70;;;20.90;99.90;;;;;;4936676;29;20928;-67
2022/10/18 08:28:19;;;;;;;3.03;2.70;;;21.10;99.90;;;;;;4936695;29;20259;-66
2022/10/18 08:30:44;;;;;;;3.63;2.97;;;21.40;99.90;;;;;;4935305;29;20177;-67
2022/10/18 08:33:10;;;;;;;10.23;2.60;;;21.60;99.90;;;;;;4922415;29;20200;-67
2022/10/18 08:35:36;;;;;;;3.33;2.90;;;21.90;99.90;;;;;;4934995;29;20201;-67
2022/10/18 08:38:01;;;;;;;2.70;2.10;;;22.00;99.90;;;;;;4918008;29;20639;-68
2022/10/18 08:40:27;;;;;;;3.37;2.23;;;22.10;99.90;;;;;;4936757;29;20176;-67
2022/10/18 08:43:01;;;;;;;4.70;2.63;;;22.10;99.90;;;;;;4936384;29;20643;-67
2022/10/18 08:45:27;;;;;;;2.53;2.33;;;22.00;99.90;;;;;;4935879;29;20202;-67
2022/10/18 08:47:56;;;;;;;3.63;2.20;;;21.90;99.90;;;;;;4936113;29;20434;-67
2022/10/18 08:50:34;;;;;;;2.60;2.37;;;22.00;99.90;;;;;;4935829;29;20419;-68
2022/10/18 08:53:21;;;;;;;3.40;3.10;;;22.00;99.90;;;;;;4932262;29;20441;-69
2022/10/18 08:56:04;;;;;;;3.23;2.93;;;22.00;99.90;;;;;;4932690;29;20582;-67
2022/10/18 08:58:32;;;;;;;4.10;3.43;;;22.10;99.90;;;;;;4931119;29;20434;-67
2022/10/18 09:01:11;;;;;;;6.80;3.60;;;22.30;99.90;;;;;;4936513;29;20483;-68
2022/10/18 09:03:43;;;;;;;3.43;3.13;;;22.90;99.90;;;;;;4936823;29;20419;-67
2022/10/18 09:06:44;;;;;;;8.80;3.50;;;23.70;99.90;;;;;;4918521;29;20964;-67
2022/10/18 09:09:21;;;;;;;3.10;2.80;;;24.90;99.90;;;;;;4858647;29;20403;-67
2022/10/18 09:12:01;;;;;;;4.67;3.10;;;25.30;99.90;;;;;;4925979;29;20444;-68
2022/10/18 09:15:06;;;;;;;3.60;3.30;;;25.20;99.90;;;;;;4918364;29;20437;-67
2022/10/18 09:18:00;;;;;;;4.20;3.23;;;25.50;99.90;;;;;;4931557;29;20792;-70
2022/10/18 09:20:32;;;;;;;3.37;3.07;;;25.90;99.40;;;;;;4931015;29;20488;-67
2022/10/18 09:23:08;;;;;;;3.57;3.27;;;26.60;98.70;;;;;;4935897;29;20424;-68
2022/10/18 09:25:45;;;;;;;3.50;3.20;;;27.10;97.30;;;;;;4933597;29;20531;-68
2022/10/18 09:28:32;;;;;;;3.27;3.00;;;27.40;96.50;;;;;;4935279;29;20468;-68
2022/10/18 09:31:00;;;;;;;6.83;3.10;;;28.10;96.10;;;;;;4936533;29;20500;-69
2022/10/18 09:33:29;;;;;;;3.20;3.00;;;28.90;95.20;;;;;;4933814;29;20426;-67
2022/10/18 09:36:01;;;;;;;3.50;3.10;;;29.60;93.00;;;;;;4935124;29;20426;-68
2022/10/18 09:38:31;;;;;;;3.50;3.20;;;30.10;92.70;;;;;;4936206;29;21014;-66
2022/10/18 09:41:14;;;;;;;3.57;2.73;;;30.60;91.30;;;;;;4919315;29;20509;-70
2022/10/18 09:43:55;;;;;;;3.07;2.87;;;30.20;91.00;;;;;;4936112;29;20791;-70
2022/10/18 09:46:25;;;;;;;2.93;2.73;;;30.10;91.20;;;;;;4943211;29;20487;-67
2022/10/18 09:49:00;;;;;;;3.30;3.10;;;30.00;91.10;;;;;;4918547;29;20399;-68
2022/10/18 09:51:36;;;;;;;2.73;2.53;;;29.50;90.50;;;;;;4934589;29;20432;-73
2022/10/18 09:54:11;;;;;;;3.50;2.57;;;28.80;91.20;;;;;;4936201;29;20495;-67
2022/10/18 09:57:00;;;;;;;3.10;2.70;;;28.20;91.40;;;;;;4936479;29;20808;-67
2022/10/18 09:59:41;;;;;;;6.40;2.77;;;27.50;92.40;;;;;;4927314;29;20492;-67
2022/10/18 10:02:13;;;;;;;2.73;2.20;;;27.10;92.90;;;;;;4954140;29;20985;-68
2022/10/18 10:04:38;;;;;;;2.57;2.40;;;27.20;93.20;;;;;;4954958;29;20445;-69
2022/10/18 10:07:11;;;;;;;2.70;2.50;;;27.60;93.30;;;;;;4936501;29;20408;-67
2022/10/18 10:09:45;;;;;;;3.20;2.63;;;28.20;92.40;;;;;;4936373;29;20181;-67
2022/10/18 10:12:47;;;;;;;4.87;3.00;;;28.30;91.40;;;;;;4936520;29;20388;-69
2022/10/18 10:15:18;;;;;;;3.43;2.77;;;27.70;91.60;;;;;;4857714;29;20965;-68
2022/10/18 10:17:52;;;;;;;2.87;2.67;;;26.80;92.50;;;;;;4907168;29;20426;-67
2022/10/18 10:20:21;;;;;;;3.33;2.87;;;26.00;93.40;;;;;;4917174;29;20788;-67
2022/10/18 10:22:49;;;;;;;2.80;2.60;;;25.40;94.50;;;;;;4916779;29;20381;-68
2022/10/18 10:25:34;;;;;;;2.93;2.53;;;24.90;96.50;;;;;;4919272;29;20412;-67
2022/10/18 10:28:10;;;;;;;2.93;2.60;;;24.80;96.50;;;;;;4936070;29;20376;-67
2022/10/18 10:30:37;;;;;;;3.77;3.10;;;25.20;96.40;;;;;;4935367;29;20448;-69
2022/10/18 10:33:04;;;;;;;2.90;2.53;;;25.60;96.00;;;;;;4935333;29;20399;-69
2022/10/18 10:35:38;;;;;;;5.27;2.90;;;25.90;95.30;;;;;;4935881;29;20465;-69
2022/10/18 10:38:05;;;;;;;9.03;2.87;;;26.20;95.00;;;;;;4935820;29;20388;-68
2022/10/18 10:40:44;;;;;;;5.10;2.27;;;26.30;94.70;;;;;;4931059;29;20771;-68
2022/10/18 10:43:17;;;;;;;2.63;2.43;;;26.40;94.70;;;;;;4935651;29;20380;-69
2022/10/18 10:46:04;;;;;;;2.80;2.60;;;26.40;94.70;;;;;;4933952;29;20440;-68
2022/10/18 10:48:45;;;;;;;2.70;2.50;;;26.50;95.20;;;;;;4910211;29;20494;-68
2022/10/18 10:51:12;;;;;;;2.80;2.60;;;26.60;94.80;;;;;;4935626;29;20396;-68
2022/10/18 10:54:04;;;;;;;5.80;2.97;;;26.70;94.60;;;;;;4935409;29;20420;-67
2022/10/18 10:56:35;;;;;;;2.60;2.33;;;26.40;94.60;;;;;;4932503;29;20502;-67
2022/10/18 10:59:12;;;;;;;3.87;3.50;;;26.30;95.10;;;;;;4935982;29;20443;-67
2022/10/18 11:01:37;;;;;;;15.30;2.97;;;26.00;95.20;;;;;;4935615;29;20388;-67
2022/10/18 11:04:30;;;;;;;3.20;2.90;;;25.50;95.70;;;;;;4935295;29;20426;-66
2022/10/18 11:07:26;;;;;;;3.97;3.43;;;24.90;96.50;;;;;;4935414;29;20193;-67
2022/10/18 11:09:57;;;;;;;3.57;3.13;;;24.30;97.10;;;;;;4935943;29;20421;-68
2022/10/18 11:12:29;;;;;;;3.40;3.00;;;23.80;98.10;;;;;;4935171;29;20418;-68
2022/10/18 11:15:35;;;;;;;5.13;3.00;;;23.60;98.60;;;;;;4945486;29;20458;-68
2022/10/18 11:18:22;;;;;;;2.97;2.40;;;23.60;99.40;;;;;;4930773;29;20401;-68
2022/10/18 11:21:06;;;;;;;3.10;2.90;;;23.50;99.60;;;;;;4934994;29;20504;-68
2022/10/18 11:23:34;;;;;;;2.87;2.67;;;23.40;99.10;;;;;;4935280;29;20499;-69
2022/10/18 11:26:02;;;;;;;4.70;2.40;;;23.40;99.40;;;;;;4935662;29;20496;-68
2022/10/18 11:28:37;;;;;;;3.07;2.53;;;23.50;99.90;;;;;;4936666;29;20412;-67
2022/10/18 11:31:08;;;;;;;2.50;2.30;;;23.60;99.90;;;;;;4934860;29;20395;-67
2022/10/18 11:33:58;;;;;;;2.80;2.60;;;23.80;99.90;;;;;;4934733;29;20449;-67
2022/10/18 11:36:28;;;;;;;2.93;2.63;;;23.80;99.50;;;;;;4930339;29;20413;-67
2022/10/18 11:39:04;;;;;;;2.60;2.40;;;23.80;99.80;;;;;;4916782;29;20428;-68
2022/10/18 11:41:32;;;;;;;3.13;2.90;;;23.80;99.50;;;;;;4919500;29;20436;-68
2022/10/18 11:44:08;;;;;;;2.80;2.60;;;23.70;99.50;;;;;;4932826;29;20432;-67
2022/10/18 11:46:53;;;;;;;2.73;2.53;;;23.70;99.50;;;;;;4934241;29;21029;-67
2022/10/18 11:50:01;;;;;;;2.50;2.30;;;23.80;99.40;;;;;;4931061;29;20429;-68
2022/10/18 11:53:05;;;;;;;3.90;3.60;;;23.80;99.70;;;;;;4936994;29;20400;-65
2022/10/18 11:55:49;;;;;;;3.20;2.90;;;23.90;99.90;;;;;;4949360;29;20803;-67
2022/10/18 11:58:36;;;;;;;3.37;3.07;;;23.90;99.90;;;;;;4902584;29;20462;-67
2022/10/18 12:01:13;;;;;;;4.57;2.77;;;23.90;99.90;;;;;;4919484;29;20405;-68
2022/10/18 12:03:57;;;;;;;3.30;2.30;;;23.80;99.90;;;;;;4937441;29;20440;-66
2022/10/18 12:06:29;;;;;;;3.40;2.50;;;23.80;99.90;;;;;;4922129;29;20617;-66
2022/10/18 12:09:01;;;;;;;2.90;2.70;;;23.80;99.90;;;;;;4938420;29;20480;-67
2022/10/18 12:11:31;;;;;;;5.43;2.57;;;23.80;99.90;;;;;;4936920;29;20402;-67
2022/10/18 12:14:03;;;;;;;3.33;2.27;;;23.70;99.90;;;;;;4919188;29;20430;-67
2022/10/18 12:16:34;;;;;;;2.30;2.20;;;23.50;99.90;;;;;;4919146;29;20425;-66
2022/10/18 12:19:11;;;;;;;3.53;2.10;;;23.30;99.90;;;;;;4937699;29;20468;-68
2022/10/18 12:21:38;;;;;;;2.33;2.13;;;23.20;99.90;;;;;;4937568;29;20810;-66
2022/10/18 12:24:11;;;;;;;2.00;1.90;;;22.90;99.90;;;;;;4924968;29;20501;-67
2022/10/18 12:26:37;;;;;;;1.67;1.57;;;22.80;99.90;;;;;;4936521;29;20421;-68
2022/10/18 12:29:43;;;;;;;2.80;2.00;;;22.60;99.90;;;;;;4950881;29;20463;-67
2022/10/18 12:32:16;;;;;;;3.53;2.13;;;22.50;99.90;;;;;;4925126;29;20480;-68
2022/10/18 12:34:49;;;;;;;2.23;2.13;;;22.50;99.90;;;;;;4937298;29;20553;-68
2022/10/18 12:37:54;;;;;;;1.70;1.53;;;22.60;99.90;;;;;;4920592;29;20517;-68
2022/10/18 12:40:24;;;;;;;2.00;1.77;;;22.60;99.90;;;;;;4930277;29;20414;-66
2022/10/18 12:42:52;;;;;;;2.50;2.30;;;22.70;99.90;;;;;;4926650;29;20473;-68
2022/10/18 12:45:34;;;;;;;5.83;4.33;;;22.60;99.90;;;;;;4918415;29;20782;-69
2022/10/18 12:48:07;;;;;;;3.40;2.80;;;22.50;99.90;;;;;;4922980;29;20502;-68
2022/10/18 12:50:34;;;;;;;2.83;2.57;;;22.50;99.90;;;;;;4919396;29;20428;-69
2022/10/18 12:53:05;;;;;;;2.53;2.33;;;22.40;99.90;;;;;;4917352;29;20413;-67
2022/10/18 12:55:39;;;;;;;2.30;2.20;;;22.20;99.90;;;;;;4918523;29;20955;-67
2022/10/18 12:58:13;;;;;;;2.93;2.60;;;22.20;99.90;;;;;;4919161;29;20458;-68
2022/10/18 13:00:41;;;;;;;2.83;2.63;;;22.10;99.90;;;;;;4919058;29;20433;-70
2022/10/18 13:03:16;;;;;;;2.73;2.53;;;22.10;99.90;;;;;;4936387;29;20801;-69
2022/10/18 13:05:51;;;;;;;3.73;2.73;;;22.10;99.90;;;;;;4936963;29;20416;-68
2022/10/18 13:08:44;;;;;;;4.10;2.53;;;22.20;99.90;;;;;;4937053;29;20446;-66
2022/10/18 13:11:10;;;;;;;3.00;2.80;;;22.30;99.90;;;;;;4924854;29;20965;-69
2022/10/18 13:13:51;;;;;;;3.40;2.27;;;22.30;99.90;;;;;;4907102;29;20539;-68
2022/10/18 13:16:31;;;;;;;2.60;2.40;;;22.30;99.90;;;;;;4931445;29;20193;-67
2022/10/18 13:19:15;;;;;;;4.93;2.20;;;22.20;99.90;;;;;;4956278;29;20545;-68
2022/10/18 13:21:59;;;;;;;2.17;1.97;;;22.10;99.90;;;;;;4955958;29;20444;-65
2022/10/18 13:24:30;;;;;;;1.70;1.60;;;22.00;99.90;;;;;;4955793;29;20421;-67
2022/10/18 13:27:23;;;;;;;1.90;1.20;;;21.90;99.90;;;;;;4939022;29;20766;-69
2022/10/18 13:30:16;;;;;;;2.43;1.53;;;21.80;99.90;;;;;;4926949;29;20824;-69
2022/10/18 13:33:12;;;;;;;2.80;2.47;;;21.80;99.90;;;;;;4931895;29;20429;-67
2022/10/18 13:35:50;;;;;;;3.43;2.97;;;21.70;99.90;;;;;;4955379;29;20789;-69
2022/10/18 13:38:35;;;;;;;2.33;2.13;;;21.60;99.90;;;;;;4941029;29;20494;-68
2022/10/18 13:41:04;;;;;;;5.93;2.83;;;21.70;99.90;;;;;;4919415;29;20453;-68
2022/10/18 13:43:51;;;;;;;2.73;1.80;;;21.70;99.90;;;;;;4936080;29;20491;-68
2022/10/18 13:46:44;;;;;;;3.20;2.20;;;21.70;99.90;;;;;;4936799;29;20428;-69
2022/10/18 13:49:13;;;;;;;1.90;1.80;;;21.80;99.90;;;;;;4955594;29;20766;-68
2022/10/18 13:52:12;;;;;;;10.07;5.80;;;21.90;99.90;;;;;;4933578;29;20434;-68
2022/10/18 13:54:44;;;;;;;2.50;2.30;;;21.90;99.90;;;;;;4924015;29;20458;-68
2022/10/18 13:57:12;;;;;;;2.40;1.60;;;21.90;99.90;;;;;;4927627;29;20437;-68
2022/10/18 13:59:49;;;;;;;6.87;1.97;;;22.00;99.90;;;;;;4917490;29;20459;-69
2022/10/18 14:03:08;;;;;;;4.97;2.47;;;21.90;99.90;;;;;;4933344;29;20774;-68
2022/10/18 14:05:37;;;;;;;2.10;1.97;;;22.00;99.90;;;;;;4877224;29;20507;-69
2022/10/18 14:08:10;;;;;;;2.30;2.20;;;22.10;99.90;;;;;;4877656;29;20431;-68
2022/10/18 14:10:55;;;;;;;2.50;2.30;;;22.20;99.90;;;;;;4915106;29;20445;-68
2022/10/18 14:13:25;;;;;;;3.63;3.33;;;22.30;99.90;;;;;;4935810;29;20418;-68
2022/10/18 14:15:57;;;;;;;3.27;3.07;;;22.40;99.90;;;;;;4924781;29;20498;-68
2022/10/18 14:18:29;;;;;;;2.80;2.60;;;22.40;99.90;;;;;;4954575;29;20472;-69
2022/10/18 14:21:01;;;;;;;3.70;3.37;;;22.40;99.90;;;;;;4955316;29;20462;-69
2022/10/18 14:23:43;;;;;;;2.97;2.67;;;22.30;99.90;;;;;;4954887;29;20461;-69
2022/10/18 14:26:16;;;;;;;3.30;3.00;;;22.30;99.90;;;;;;4936053;29;20438;-68
2022/10/18 14:28:43;;;;;;;3.97;3.67;;;22.20;99.90;;;;;;4928710;29;20408;-69
2022/10/18 14:31:14;;;;;;;3.30;3.10;;;22.10;99.90;;;;;;4932547;29;20788;-69
2022/10/18 14:33:55;;;;;;;4.17;2.83;;;22.10;99.90;;;;;;4946047;29;20866;-68
2022/10/18 14:36:23;;;;;;;3.83;3.30;;;22.00;99.90;;;;;;4955248;29;20471;-68
2022/10/18 14:39:01;;;;;;;2.70;2.60;;;21.90;99.90;;;;;;4937771;29;21011;-70
2022/10/18 14:41:33;;;;;;;2.80;2.60;;;21.80;99.90;;;;;;4955131;29;20466;-70
2022/10/18 14:44:18;;;;;;;2.97;2.77;;;21.80;99.90;;;;;;4954948;29;20432;-70
2022/10/18 14:46:58;;;;;;;2.80;2.60;;;21.70;99.90;;;;;;4955258;29;20877;-69
2022/10/18 14:49:24;;;;;;;3.03;2.83;;;21.70;99.90;;;;;;4936551;29;20491;-70
2022/10/18 14:51:57;;;;;;;2.60;2.50;;;21.60;99.90;;;;;;4936000;29;20893;-67
2022/10/18 14:54:31;;;;;;;2.90;2.70;;;21.60;99.90;;;;;;4935429;29;20203;-70
2022/10/18 14:56:58;;;;;;;8.33;3.23;;;21.60;99.90;;;;;;4935925;29;20500;-69
2022/10/18 14:59:27;;;;;;;10.03;3.30;;;21.60;99.90;;;;;;4935769;29;20589;-69
2022/10/18 15:02:04;;;;;;;2.47;2.33;;;21.60;99.90;;;;;;4936209;29;20409;-69
2022/10/18 15:04:33;;;;;;;2.47;2.30;;;21.50;99.90;;;;;;4954180;29;20921;-69
2022/10/18 15:07:02;;;;;;;2.23;2.13;;;21.40;99.90;;;;;;4954912;29;20410;-69
2022/10/18 15:09:28;;;;;;;2.70;2.50;;;21.40;99.90;;;;;;4954939;29;20768;-68
2022/10/18 15:11:56;;;;;;;2.77;2.50;;;21.40;99.90;;;;;;4954816;29;20503;-70
2022/10/18 15:14:23;;;;;;;3.47;3.17;;;21.30;99.90;;;;;;4954105;29;20530;-70
2022/10/18 15:16:52;;;;;;;3.57;3.23;;;21.20;99.90;;;;;;4955301;29;20885;-69
2022/10/18 15:19:21;;;;;;;7.30;3.13;;;21.20;99.90;;;;;;4939191;29;20466;-69
2022/10/18 15:21:52;;;;;;;2.37;2.27;;;21.10;99.90;;;;;;4922014;29;20493;-69
2022/10/18 15:24:26;;;;;;;4.03;2.70;;;21.00;99.90;;;;;;4938858;29;20433;-68
2022/10/18 15:26:55;;;;;;;2.53;2.17;;;21.00;99.90;;;;;;4922581;29;20436;-70
2022/10/18 15:29:22;;;;;;;3.87;3.37;;;20.90;99.90;;;;;;4938878;29;20473;-68
2022/10/18 15:31:49;;;;;;;12.70;4.83;;;20.80;99.90;;;;;;4942875;29;20420;-69
2022/10/18 15:34:25;;;;;;;4.23;3.67;;;20.70;99.90;;;;;;4957631;29;20434;-69
2022/10/18 15:36:55;;;;;;;18.57;12.50;;;20.70;99.90;;;;;;4958190;29;20414;-69
2022/10/18 15:39:28;;;;;;;6.30;3.10;;;20.60;99.90;;;;;;4957607;29;20459;-70
2022/10/18 15:41:55;;;;;;;6.70;3.97;;;20.50;99.90;;;;;;4957944;29;20457;-69
2022/10/18 15:44:33;;;;;;;22.90;14.20;;;20.50;99.90;;;;;;4957693;29;20953;-69
2022/10/18 15:47:38;;;;;;;6.60;4.03;;;20.50;99.90;;;;;;4933226;29;20417;-70
2022/10/18 15:50:24;;;;;;;3.70;2.70;;;20.50;99.90;;;;;;4918941;29;20449;-70
2022/10/18 15:52:50;;;;;;;3.03;2.80;;;20.40;99.90;;;;;;4935339;29;20425;-70
2022/10/18 15:55:32;;;;;;;2.07;1.93;;;20.30;99.90;;;;;;4930402;29;20756;-70
2022/10/18 15:58:14;;;;;;;3.20;2.90;;;20.30;99.90;;;;;;4936787;29;20418;-67
2022/10/18 16:00:41;;;;;;;3.77;3.10;;;20.20;99.90;;;;;;4938511;29;20421;-69
2022/10/18 16:03:08;;;;;;;3.50;3.20;;;20.20;99.90;;;;;;4939857;29;20560;-69
2022/10/18 16:05:35;;;;;;;7.23;5.00;;;20.10;99.90;;;;;;4933716;29;20537;-69
2022/10/18 16:08:01;;;;;;;3.50;3.20;;;20.00;99.90;;;;;;4919665;29;20433;-69
2022/10/18 16:10:26;;;;;;;12.87;5.67;;;20.00;99.90;;;;;;4935694;29;20784;-69
2022/10/18 16:12:52;;;;;;;6.43;5.33;;;19.90;99.90;;;;;;4920923;29;20174;-69
2022/10/18 16:15:18;;;;;;;3.93;3.37;;;19.90;99.90;;;;;;4920079;29;20289;-69
2022/10/18 16:17:43;;;;;;;3.60;3.40;;;19.90;99.90;;;;;;4919321;29;20174;-65
2022/10/18 16:20:23;;;;;;;3.20;3.00;;;19.90;99.90;;;;;;4915308;29;20597;-66
2022/10/18 16:22:49;;;;;;;5.83;4.07;;;19.90;99.90;;;;;;4918657;29;20676;-68
2022/10/18 16:25:15;;;;;;;3.60;3.30;;;19.80;99.90;;;;;;4933663;29;20474;-66
2022/10/18 16:27:40;;;;;;;3.83;3.53;;;19.70;99.90;;;;;;4917156;29;20170;-67
2022/10/18 16:30:19;;;;;;;6.63;5.90;;;19.70;99.90;;;;;;4944578;29;20177;-67
2022/10/18 16:32:46;;;;;;;7.90;3.43;;;19.60;99.90;;;;;;4939352;29;20181;-67
2022/10/18 16:35:12;;;;;;;3.67;3.37;;;19.60;99.90;;;;;;4936511;29;20430;-68
2022/10/18 16:37:38;;;;;;;3.03;2.83;;;19.60;99.90;;;;;;4940408;29;20459;-68
2022/10/18 16:40:25;;;;;;;2.80;2.60;;;19.50;99.90;;;;;;4947556;29;20457;-69
2022/10/18 16:42:51;;;;;;;4.53;4.13;;;19.50;99.90;;;;;;4920452;29;20453;-68
2022/10/18 16:45:17;;;;;;;4.07;3.30;;;19.50;99.90;;;;;;4937706;29;20820;-68
2022/10/18 16:47:43;;;;;;;3.07;2.80;;;19.50;99.90;;;;;;4935604;29;20205;-68
2022/10/18 16:50:19;;;;;;;2.80;2.60;;;19.50;99.90;;;;;;4927542;29;20426;-67
2022/10/18 16:52:44;;;;;;;3.30;3.10;;;19.40;99.90;;;;;;4924149;29;20177;-68
2022/10/18 16:55:20;;;;;;;5.90;3.67;;;19.40;99.90;;;;;;4937621;29;20821;-68
2022/10/18 16:57:46;;;;;;;4.03;3.00;;;19.40;99.90;;;;;;4945476;29;20181;-67
2022/10/18 17:00:17;;;;;;;2.90;2.70;;;19.30;99.90;;;;;;4943580;29;20964;-67
2022/10/18 17:02:43;;;;;;;3.13;2.87;;;19.30;99.90;;;;;;4929207;29;20421;-67
2022/10/18 17:05:08;;;;;;;6.70;3.07;;;19.30;99.90;;;;;;4935262;29;20464;-67
2022/10/18 17:07:34;;;;;;;2.97;2.77;;;19.30;99.90;;;;;;4944292;29;20181;-68
2022/10/18 17:09:59;;;;;;;9.70;6.83;;;19.30;99.90;;;;;;4956485;29;20247;-67
2022/10/18 17:12:25;;;;;;;4.60;4.20;;;19.20;99.90;;;;;;4932318;29;20182;-67
2022/10/18 17:14:51;;;;;;;3.67;3.27;;;19.20;99.90;;;;;;4918701;29;20706;-68
2022/10/18 17:17:16;;;;;;;3.60;2.77;;;19.10;99.90;;;;;;4915147;29;20272;-68